EKVA weather

CLOSED Vandel Air Base
Vandel, South Denmark, Denmark

Public forecast

Using degrees Celsius for public forecast. Weather courtesy of forecast.io.

Closest aviation weather report (METAR) to Vandel Air Base

Closest report is Billund Airport, 3.2 nm (5.8 km) NW. Retrieved 2019/12/06 05:20 UTC (7 minutes ago):

EKBI 060520Z AUTO 23017G27KT 4100 RA BR OVC005/// 10/09 Q0997

Closest aviation forecast (TAF) to Vandel Air Base

Closest forecast is Billund Airport, 3.2 nm (5.8 km) NW. Retrieved 2019-12-06 00:37 UTC (5 hours ago):

TAF EKBI 052302Z 0600/0624 22018KT 6000 -RADZ BKN008 TEMPO 0600/0608 23022G40KT 2000 RADZ BR BKN004 BECMG 0608/0610 1200 BR BKN002 TEMPO 0610/0621 23015G25KT 5000 SHRA BKN008 SCT015CB BECMG 0621/0623 9999 NSW SCT008 BKN015 TEMPO 0623/0624 26015G25KT SHRA BKN012 SCT015CB